Boeuf, Argentina
Current Conditions -  °F | °C
As of 7:00 PM on Friday 31 Oct 2014 (Local Time) from SAOC Reporting Station
Clear Clear  
Wind Chill: 16°   Ceiling: Unl
Heat Index: 16°   Visibility: 6mi
Dew Point: 12°   Wind: 9mph
Humidity: 77%   Direction: 50°NE
Pressure: 30"   Gusts: NA
Location:  35.94°S, 64.37°W
Report Text: SAOC 312200Z 05008KT CAVOK 16/12 Q1016
Loading
Personal Weather Stations






























Interactive Weather Map
Tropical Storm Tracking
New forecast layout! Learn more

10-Day Weather Forecast

Advertisements
Track Severe Weather on mobile